Página principal
METAR-TAF:

METAR-TAF

Aeroportos :

Aeroporto Internacional de Ushuaia - Malvinas Argentinas

Ushuaia, Argentina

latitude: 54-48S, longitude: 068-19W, altura: 16 m

Observação actual do tempo

O boletim foi feito há 29 minutos, às 18:00 UTC
Vento 23 kt de oes-sudoeste
Temperatura 11°C
Humidade 58%
Pressão 1010 hPa
Visibilidade 10 km ou mais
sem nuvens abaixo de 1500 metros e sem cumulonimbus

METAR: SAWH 061800Z 24023KT CAVOK 11/03 Q1010 RMK PP000

Hora: 15:29 (18:29 UTC)

Previsão

O boletim foi feito há 1 hora e 29 minutos, às 17:00 UTC
Previsão válida de 06 às 18 UTC a 07 às 18 UTC
Vento 20 kt de oes-sudoeste com rajadas de 30 kt
Visibilidade 10 km ou mais
Nuvens fragmentadasa uma altura de 2000 ft
Nuvens dispersasa uma altura de 4000 ft
Tornando-se
de 07 às 00 UTC a 07 às 02 UTC
Vento 15 kt de oes-sudoeste

TAF: SAWH 061700Z 0618/0718 25020G30KT 9999 BKN020 SCT040 TX11/0718Z TN03/0710Z BECMG 0700/0702 25015KT

Observações e previsões do tempo de mais de 4000 aeroportos (mensagens METAR e TAF).

As estações disponíveis são os pontos amarelos e vermelhos sobre o mapa.

Mova o rato sobre o mapa para ver o nome da estação.

Depois clique no ponto para visualizar as observações e previsões meteorológicas.

Para alterar o mapa : clique nos botões verdes com uma cruz preta para aumentar o zoom; no botão verde com uma pitada de zoom; ou nas setas verdes para mapas adjacentes.


METAR-TAF: